Time;durP1;ratioP1;P1;durP2;ratioP2;P2;SDS_P1;SDS_P2;PMS_P1;PMS_P2;Temp;Humidity;BMP_temperature;BMP_pressure;BME280_temperature;BME280_humidity;BME280_pressure;Samples;Min_cycle;Max_cycle;Signal;HPM_P1;HPM_P2
2022/07/27 00:01:39;;;;;;;2.83;1.30;;;20.30;57.80;;;;;;4995121;28;20448;-68
2022/07/27 00:04:06;;;;;;;5.90;1.00;;;20.30;58.50;;;;;;4994301;28;20488;-68
2022/07/27 00:06:33;;;;;;;2.53;1.20;;;20.30;58.20;;;;;;4994241;28;20467;-68
2022/07/27 00:08:59;;;;;;;3.47;1.20;;;20.20;58.30;;;;;;4994210;28;20494;-68
2022/07/27 00:11:26;;;;;;;6.00;1.50;;;20.20;58.40;;;;;;4994284;28;20514;-69
2022/07/27 00:13:53;;;;;;;2.97;1.17;;;20.10;58.50;;;;;;4994305;28;20455;-69
2022/07/27 00:16:21;;;;;;;4.80;1.30;;;20.10;58.60;;;;;;4994165;28;20455;-69
2022/07/27 00:18:48;;;;;;;5.00;1.47;;;20.00;58.60;;;;;;4993653;28;20503;-68
2022/07/27 00:21:15;;;;;;;3.20;1.10;;;20.00;58.90;;;;;;4993815;28;20464;-68
2022/07/27 00:23:41;;;;;;;4.50;1.07;;;19.90;59.10;;;;;;4994067;28;20444;-68
2022/07/27 00:26:08;;;;;;;3.27;1.60;;;19.80;59.40;;;;;;4993737;28;20819;-69
2022/07/27 00:28:35;;;;;;;6.07;1.60;;;19.70;59.50;;;;;;4993970;28;20535;-68
2022/07/27 00:31:02;;;;;;;3.30;1.00;;;19.70;59.70;;;;;;4994008;28;20452;-68
2022/07/27 00:33:30;;;;;;;2.90;0.97;;;19.60;60.10;;;;;;4993927;28;20448;-68
2022/07/27 00:35:57;;;;;;;2.57;1.27;;;19.60;61.00;;;;;;4994052;28;20452;-68
2022/07/27 00:38:24;;;;;;;8.60;1.87;;;19.70;60.80;;;;;;4993944;28;20456;-69
2022/07/27 00:40:52;;;;;;;3.50;1.57;;;19.70;60.60;;;;;;4993949;28;20452;-69
2022/07/27 00:43:19;;;;;;;3.10;1.20;;;19.70;60.50;;;;;;4993631;28;20938;-69
2022/07/27 00:45:46;;;;;;;2.50;1.53;;;19.70;60.50;;;;;;4993602;28;20946;-69
2022/07/27 00:48:13;;;;;;;3.43;1.30;;;19.70;60.40;;;;;;4993753;28;20476;-69
2022/07/27 00:50:43;;;;;;;2.07;1.10;;;19.80;60.50;;;;;;4993922;28;20456;-69
2022/07/27 00:53:10;;;;;;;5.90;1.13;;;19.80;60.60;;;;;;4993615;28;20922;-69
2022/07/27 00:55:39;;;;;;;1.67;1.00;;;19.80;60.60;;;;;;4993920;28;20479;-69
2022/07/27 00:58:08;;;;;;;4.33;1.20;;;19.80;60.70;;;;;;4993697;28;20448;-69
2022/07/27 01:00:36;;;;;;;1.43;0.97;;;19.80;60.80;;;;;;4993521;28;20444;-70
2022/07/27 01:03:03;;;;;;;4.33;0.90;;;19.80;60.60;;;;;;4993833;28;20453;-70
2022/07/27 01:05:30;;;;;;;4.27;1.27;;;19.80;60.50;;;;;;4993765;28;20474;-70
2022/07/27 01:07:58;;;;;;;3.03;1.00;;;19.80;60.70;;;;;;4993627;28;20531;-69
2022/07/27 01:10:25;;;;;;;3.83;1.10;;;19.80;60.80;;;;;;4993535;28;20471;-69
2022/07/27 01:12:52;;;;;;;3.70;1.10;;;19.80;60.90;;;;;;4996271;28;20958;-69
2022/07/27 01:15:19;;;;;;;7.57;1.67;;;19.80;61.00;;;;;;4997248;28;20444;-69
2022/07/27 01:17:46;;;;;;;1.73;0.90;;;19.80;61.30;;;;;;4996860;28;20452;-69
2022/07/27 01:20:13;;;;;;;2.60;1.10;;;19.70;61.20;;;;;;4997004;28;21008;-69
2022/07/27 01:22:41;;;;;;;3.77;1.07;;;19.70;61.20;;;;;;4997221;28;20451;-69
2022/07/27 01:25:09;;;;;;;2.17;1.00;;;19.80;61.20;;;;;;4996457;28;20956;-69
2022/07/27 01:27:36;;;;;;;1.40;0.90;;;19.70;61.20;;;;;;4997094;28;20428;-69
2022/07/27 01:30:25;;;;;;;3.70;1.10;;;19.70;61.20;;;;;;4996968;28;20858;-69
2022/07/27 01:32:50;;;;;;;4.30;1.17;;;19.70;61.20;;;;;;4996799;28;20452;-69
2022/07/27 01:35:16;;;;;;;3.97;1.57;;;19.60;61.30;;;;;;4996960;28;20452;-69
2022/07/27 01:37:44;;;;;;;2.87;0.73;;;19.60;61.60;;;;;;4996844;28;20460;-69
2022/07/27 01:40:12;;;;;;;1.17;0.80;;;19.60;61.60;;;;;;4996871;28;20475;-69
2022/07/27 01:42:39;;;;;;;3.47;1.37;;;19.60;61.70;;;;;;4996557;28;20953;-69
2022/07/27 01:45:07;;;;;;;4.40;1.60;;;19.60;61.80;;;;;;4996749;28;20455;-69
2022/07/27 01:47:34;;;;;;;2.50;1.50;;;19.50;61.90;;;;;;4996631;28;20459;-70
2022/07/27 01:50:01;;;;;;;3.60;1.40;;;19.50;63.00;;;;;;4996470;28;20492;-70
2022/07/27 01:52:27;;;;;;;1.10;1.00;;;19.50;62.40;;;;;;4996662;28;20524;-70
2022/07/27 01:54:55;;;;;;;2.60;1.40;;;19.50;62.40;;;;;;4996591;28;20450;-70
2022/07/27 01:57:22;;;;;;;4.63;1.30;;;19.40;62.40;;;;;;4996556;28;20440;-70
2022/07/27 01:59:49;;;;;;;3.13;1.60;;;19.40;62.50;;;;;;4996120;28;20937;-70
2022/07/27 02:02:16;;;;;;;2.57;1.10;;;19.40;62.60;;;;;;4996595;28;20459;-70
2022/07/27 02:04:43;;;;;;;4.50;1.60;;;19.40;62.60;;;;;;4996436;28;20459;-70
2022/07/27 02:07:10;;;;;;;4.80;1.60;;;19.30;62.60;;;;;;4996389;28;20463;-70
2022/07/27 02:09:37;;;;;;;2.40;1.60;;;19.30;62.70;;;;;;4996161;28;20495;-69
2022/07/27 02:14:49;;;;;;;4.53;1.40;;;19.20;62.70;;;;;;4996445;28;20428;-69
2022/07/27 02:17:16;;;;;;;2.73;1.27;;;19.20;63.00;;;;;;4996388;28;20774;-69
2022/07/27 02:19:43;;;;;;;3.60;1.40;;;19.10;63.00;;;;;;4995841;28;20471;-70
2022/07/27 02:22:09;;;;;;;3.97;1.60;;;19.10;63.10;;;;;;4995596;28;20831;-69
2022/07/27 02:24:38;;;;;;;2.17;1.30;;;19.00;63.10;;;;;;4996027;28;20456;-69
2022/07/27 02:27:06;;;;;;;3.60;1.73;;;19.00;63.20;;;;;;4996033;28;20858;-69
2022/07/27 02:29:32;;;;;;;6.93;1.30;;;18.90;63.20;;;;;;4995762;28;20484;-69
2022/07/27 02:31:59;;;;;;;1.50;1.30;;;18.90;63.30;;;;;;4995969;28;20448;-69
2022/07/27 02:34:26;;;;;;;4.43;0.93;;;18.90;63.40;;;;;;4995738;28;20972;-69
2022/07/27 02:36:53;;;;;;;2.47;1.47;;;18.80;63.10;;;;;;4996027;28;20452;-69
2022/07/27 02:39:19;;;;;;;4.10;1.40;;;18.80;63.40;;;;;;4995975;28;20842;-69
2022/07/27 02:41:48;;;;;;;4.87;1.67;;;18.80;63.40;;;;;;4995807;28;20451;-69
2022/07/27 02:44:16;;;;;;;2.63;1.43;;;18.70;63.50;;;;;;4995580;28;20455;-69
2022/07/27 02:46:43;;;;;;;1.90;1.50;;;18.70;63.80;;;;;;4995729;28;20550;-69
2022/07/27 02:49:10;;;;;;;4.63;1.37;;;18.70;64.10;;;;;;4995317;28;20491;-69
2022/07/27 02:51:37;;;;;;;2.97;1.53;;;18.60;64.20;;;;;;4995496;28;20539;-69
2022/07/27 02:54:04;;;;;;;4.00;1.50;;;18.50;64.10;;;;;;4995388;28;20452;-69
2022/07/27 02:56:30;;;;;;;2.20;1.43;;;18.50;64.20;;;;;;4995032;28;20452;-69
2022/07/27 02:58:57;;;;;;;3.53;1.50;;;18.50;64.30;;;;;;4995261;28;20471;-69
2022/07/27 03:01:25;;;;;;;5.03;1.80;;;18.50;64.40;;;;;;4995375;28;20448;-69
2022/07/27 03:03:52;;;;;;;7.40;1.57;;;18.50;64.40;;;;;;4995263;28;20452;-69
2022/07/27 03:06:19;;;;;;;7.23;1.87;;;18.50;64.60;;;;;;4995217;28;20453;-69
2022/07/27 03:08:46;;;;;;;1.63;1.23;;;18.40;64.70;;;;;;4995230;28;20480;-69
2022/07/27 03:11:14;;;;;;;4.70;1.93;;;18.30;64.60;;;;;;4994987;28;20915;-69
2022/07/27 03:13:41;;;;;;;5.87;1.70;;;18.40;65.00;;;;;;4995086;28;20433;-69
2022/07/27 03:16:09;;;;;;;3.27;1.73;;;18.30;65.00;;;;;;4995083;28;20503;-69
2022/07/27 03:18:37;;;;;;;6.23;1.70;;;18.30;65.30;;;;;;4994837;28;20472;-69
2022/07/27 03:21:04;;;;;;;2.03;1.10;;;18.30;65.30;;;;;;4994840;28;20458;-69
2022/07/27 03:23:30;;;;;;;3.13;1.60;;;18.30;65.50;;;;;;4994889;28;20440;-69
2022/07/27 03:25:57;;;;;;;2.70;1.43;;;18.30;65.50;;;;;;4994925;28;20448;-69
2022/07/27 03:28:24;;;;;;;4.13;2.00;;;18.20;65.40;;;;;;4994482;28;20472;-69
2022/07/27 03:30:51;;;;;;;2.67;1.90;;;18.20;65.40;;;;;;4994728;28;20468;-69
2022/07/27 03:33:18;;;;;;;2.50;1.43;;;18.20;65.50;;;;;;4994692;28;20454;-69
2022/07/27 03:35:46;;;;;;;3.23;1.93;;;18.10;65.40;;;;;;4994049;28;20440;-69
2022/07/27 03:38:12;;;;;;;2.70;1.80;;;18.10;65.50;;;;;;4994342;28;21003;-69
2022/07/27 03:40:40;;;;;;;3.80;2.13;;;18.10;65.60;;;;;;4994898;28;20443;-69
2022/07/27 03:43:06;;;;;;;4.60;1.90;;;18.00;65.70;;;;;;4994358;28;20946;-69
2022/07/27 03:45:33;;;;;;;5.37;1.70;;;17.90;65.70;;;;;;4994591;28;20776;-69
2022/07/27 03:48:00;;;;;;;2.97;1.83;;;17.90;65.90;;;;;;4994482;28;20455;-69
2022/07/27 03:50:27;;;;;;;2.73;1.60;;;17.90;65.90;;;;;;4994412;28;20582;-69
2022/07/27 03:52:55;;;;;;;1.80;1.40;;;17.80;66.10;;;;;;4994466;28;20444;-69
2022/07/27 03:55:22;;;;;;;3.10;1.40;;;17.80;66.30;;;;;;4994474;28;20452;-69
2022/07/27 03:57:49;;;;;;;4.37;2.10;;;17.80;66.20;;;;;;4994586;28;20832;-69
2022/07/27 04:00:16;;;;;;;5.17;1.80;;;17.80;67.00;;;;;;4994096;28;21000;-69
2022/07/27 04:02:43;;;;;;;4.67;1.80;;;17.70;66.20;;;;;;4994413;28;20483;-69
2022/07/27 04:05:11;;;;;;;2.43;1.73;;;17.70;66.50;;;;;;4994247;28;20451;-69
2022/07/27 04:07:38;;;;;;;4.03;1.90;;;17.70;66.60;;;;;;4993779;28;20434;-69
2022/07/27 04:10:08;;;;;;;2.50;1.83;;;17.70;66.80;;;;;;4994217;28;20261;-69
2022/07/27 04:12:36;;;;;;;3.20;1.50;;;17.70;66.80;;;;;;4994201;28;20471;-69
2022/07/27 04:15:03;;;;;;;2.57;1.60;;;17.60;66.70;;;;;;4994191;28;20449;-69
2022/07/27 04:17:30;;;;;;;5.37;1.53;;;17.60;66.90;;;;;;4994203;28;20452;-69
2022/07/27 04:19:57;;;;;;;3.70;2.00;;;17.60;67.00;;;;;;4994141;28;20463;-69
2022/07/27 04:22:23;;;;;;;4.50;1.90;;;17.60;67.20;;;;;;4993830;28;20958;-69
2022/07/27 04:24:50;;;;;;;3.87;2.20;;;17.50;67.20;;;;;;4994342;28;20433;-69
2022/07/27 04:27:18;;;;;;;4.60;2.63;;;17.50;67.50;;;;;;4994059;28;20459;-69
2022/07/27 04:29:45;;;;;;;6.57;1.80;;;17.50;67.50;;;;;;4993837;28;20487;-69
2022/07/27 04:32:12;;;;;;;5.80;1.93;;;17.40;67.70;;;;;;4994104;28;20448;-69
2022/07/27 04:34:39;;;;;;;2.60;1.87;;;17.40;67.90;;;;;;4993883;28;20942;-69
2022/07/27 04:37:06;;;;;;;2.70;1.80;;;17.40;68.30;;;;;;4993795;28;20966;-69
2022/07/27 04:39:33;;;;;;;3.70;1.80;;;17.40;68.30;;;;;;4993871;28;20841;-69
2022/07/27 04:41:59;;;;;;;2.20;2.00;;;17.40;68.40;;;;;;4993773;28;20940;-69
2022/07/27 04:44:27;;;;;;;2.83;2.27;;;17.40;68.70;;;;;;4993582;28;20942;-69
2022/07/27 04:46:55;;;;;;;9.87;1.90;;;17.40;68.80;;;;;;4996607;28;20455;-69
2022/07/27 04:49:21;;;;;;;2.83;2.10;;;17.40;69.00;;;;;;4997535;28;20515;-69
2022/07/27 04:51:48;;;;;;;4.07;2.20;;;17.40;69.20;;;;;;4997455;28;20969;-69
2022/07/27 04:54:15;;;;;;;5.27;2.13;;;17.40;69.50;;;;;;4997612;28;20454;-69
2022/07/27 04:56:42;;;;;;;3.00;2.20;;;17.40;69.70;;;;;;4997294;28;20444;-69
2022/07/27 04:59:08;;;;;;;5.50;2.30;;;17.40;70.00;;;;;;4997266;28;20989;-69
2022/07/27 05:01:36;;;;;;;2.20;2.00;;;17.40;70.20;;;;;;4997539;28;20448;-69
2022/07/27 05:04:04;;;;;;;3.07;2.23;;;17.40;70.40;;;;;;4997476;28;20452;-69
2022/07/27 05:06:31;;;;;;;7.20;2.20;;;17.40;70.60;;;;;;4997510;28;20448;-69
2022/07/27 05:08:58;;;;;;;6.30;3.50;;;17.40;71.00;;;;;;4997356;28;20479;-69
2022/07/27 05:11:25;;;;;;;5.27;2.30;;;17.40;71.50;;;;;;4997295;28;20472;-69
2022/07/27 05:13:52;;;;;;;4.00;2.10;;;17.40;71.70;;;;;;4997896;28;20443;-69
2022/07/27 05:16:18;;;;;;;3.30;2.13;;;17.40;71.90;;;;;;4997506;28;20448;-69
2022/07/27 05:18:47;;;;;;;4.90;2.53;;;17.50;72.30;;;;;;4996801;28;20468;-69
2022/07/27 05:21:13;;;;;;;6.63;3.00;;;17.50;72.80;;;;;;4997175;28;20448;-69
2022/07/27 05:23:40;;;;;;;6.03;2.70;;;17.50;73.40;;;;;;4997161;28;20459;-69
2022/07/27 05:26:07;;;;;;;3.80;2.37;;;17.50;74.00;;;;;;4996723;28;20877;-69
2022/07/27 05:28:34;;;;;;;3.93;2.57;;;17.40;74.30;;;;;;4996947;28;20471;-69
2022/07/27 05:31:01;;;;;;;3.97;2.40;;;17.40;75.10;;;;;;4996949;28;20491;-69
2022/07/27 05:33:28;;;;;;;4.40;2.60;;;17.40;76.20;;;;;;4996954;28;20455;-69
2022/07/27 05:35:57;;;;;;;5.47;3.13;;;17.30;76.90;;;;;;4996636;28;21054;-69
2022/07/27 05:38:24;;;;;;;3.90;3.00;;;17.30;77.90;;;;;;4996876;28;20459;-69
2022/07/27 05:40:51;;;;;;;5.00;2.30;;;17.30;78.40;;;;;;4996939;28;20827;-69
2022/07/27 05:43:18;;;;;;;4.87;3.33;;;17.30;78.70;;;;;;4996507;28;20456;-69
2022/07/27 05:45:45;;;;;;;2.70;2.40;;;17.30;79.20;;;;;;4996830;28;20964;-69
2022/07/27 05:48:12;;;;;;;5.47;2.70;;;17.30;79.60;;;;;;4996813;28;20484;-69
2022/07/27 05:50:39;;;;;;;3.63;2.77;;;17.30;79.60;;;;;;4997014;28;20479;-69
2022/07/27 05:53:07;;;;;;;3.90;2.50;;;17.40;79.70;;;;;;4996972;28;20447;-69
2022/07/27 05:55:34;;;;;;;4.33;2.53;;;17.40;79.80;;;;;;4996507;28;20880;-69
2022/07/27 05:58:01;;;;;;;3.23;2.57;;;17.40;79.60;;;;;;4996580;28;20456;-69
2022/07/27 06:00:27;;;;;;;2.83;2.10;;;17.50;79.10;;;;;;4996997;28;20469;-69
2022/07/27 06:02:54;;;;;;;2.33;2.00;;;17.50;79.30;;;;;;4997007;28;20456;-68
2022/07/27 06:05:21;;;;;;;3.80;2.50;;;17.50;79.20;;;;;;4996837;28;20445;-68
2022/07/27 06:07:59;;;;;;;3.90;2.33;;;17.50;79.30;;;;;;4996843;28;20444;-68
2022/07/27 06:10:28;;;;;;;4.67;2.47;;;17.60;79.20;;;;;;4996396;28;20490;-69
2022/07/27 06:12:55;;;;;;;5.70;2.23;;;17.70;79.40;;;;;;4996017;28;20464;-69
2022/07/27 06:15:22;;;;;;;5.50;2.73;;;17.90;79.00;;;;;;4996392;28;20532;-69
2022/07/27 06:17:52;;;;;;;5.77;1.90;;;18.00;78.40;;;;;;4996147;28;20540;-69
2022/07/27 06:20:20;;;;;;;7.40;2.30;;;18.00;77.60;;;;;;4995564;28;20472;-69
2022/07/27 06:22:49;;;;;;;2.63;1.67;;;18.00;76.10;;;;;;4996131;28;20441;-69
2022/07/27 06:25:16;;;;;;;4.27;2.10;;;18.10;76.60;;;;;;4995915;28;20456;-69
2022/07/27 06:27:45;;;;;;;6.23;2.03;;;18.20;76.50;;;;;;4996003;28;20448;-69
2022/07/27 06:30:13;;;;;;;4.73;1.90;;;18.30;76.40;;;;;;4995792;28;20499;-69
2022/07/27 06:32:40;;;;;;;2.47;1.50;;;18.30;75.20;;;;;;4995684;28;20934;-69
2022/07/27 06:35:08;;;;;;;3.33;1.67;;;18.40;75.20;;;;;;4995749;28;20451;-69
2022/07/27 06:37:36;;;;;;;3.57;2.07;;;18.60;75.00;;;;;;4995744;28;20461;-69
2022/07/27 06:40:04;;;;;;;2.60;1.60;;;18.60;73.90;;;;;;4995847;28;20556;-69
2022/07/27 06:42:31;;;;;;;6.60;1.70;;;18.70;73.60;;;;;;4995713;28;20460;-69
2022/07/27 06:44:59;;;;;;;2.13;1.63;;;18.90;73.30;;;;;;4995249;28;20796;-69
2022/07/27 06:47:26;;;;;;;6.40;1.90;;;19.00;72.30;;;;;;4995584;28;20452;-69
2022/07/27 06:49:53;;;;;;;6.17;1.80;;;19.10;71.50;;;;;;4995324;28;20491;-69
2022/07/27 06:52:20;;;;;;;6.60;1.60;;;19.20;71.50;;;;;;4995608;28;20462;-69
2022/07/27 06:54:46;;;;;;;2.90;1.33;;;19.30;70.50;;;;;;4995488;28;20435;-69
2022/07/27 06:57:14;;;;;;;4.83;1.63;;;19.40;70.10;;;;;;4995022;28;20953;-69
2022/07/27 06:59:41;;;;;;;4.13;1.27;;;19.50;69.50;;;;;;4995230;28;20476;-69
2022/07/27 07:02:09;;;;;;;4.63;1.43;;;19.70;69.40;;;;;;4994898;28;20821;-69
2022/07/27 07:04:36;;;;;;;3.73;1.30;;;19.80;68.20;;;;;;4994838;28;20448;-69
2022/07/27 07:07:03;;;;;;;3.83;1.00;;;20.00;66.60;;;;;;4995134;28;20456;-69
2022/07/27 07:09:30;;;;;;;3.93;1.10;;;20.20;65.60;;;;;;4994053;28;20468;-69
2022/07/27 07:11:57;;;;;;;4.20;1.10;;;20.40;65.10;;;;;;4994869;28;20468;-69
2022/07/27 07:14:24;;;;;;;3.50;1.50;;;20.40;62.90;;;;;;4995108;28;20470;-69
2022/07/27 07:16:52;;;;;;;5.47;1.17;;;20.50;62.20;;;;;;4995010;28;20519;-69
2022/07/27 07:19:20;;;;;;;6.10;1.97;;;20.50;62.30;;;;;;4994893;28;20527;-69
2022/07/27 07:21:47;;;;;;;6.87;1.40;;;20.60;62.40;;;;;;4995171;28;20444;-69
2022/07/27 07:24:14;;;;;;;6.40;1.30;;;20.70;59.90;;;;;;4994828;28;20448;-69
2022/07/27 07:26:41;;;;;;;9.50;1.40;;;20.80;60.90;;;;;;4994810;28;20454;-69
2022/07/27 07:29:08;;;;;;;6.87;1.10;;;20.80;60.60;;;;;;4994668;28;20467;-69
2022/07/27 07:31:36;;;;;;;4.10;0.80;;;20.90;61.00;;;;;;4994618;28;20484;-69
2022/07/27 07:34:04;;;;;;;2.70;1.20;;;21.00;61.00;;;;;;4994664;28;20495;-69
2022/07/27 07:36:32;;;;;;;5.70;1.23;;;21.10;61.60;;;;;;4994602;28;20449;-69
2022/07/27 07:38:59;;;;;;;3.10;1.20;;;21.10;58.70;;;;;;4994712;28;20464;-69
2022/07/27 07:41:26;;;;;;;3.27;1.10;;;21.10;59.10;;;;;;4994650;28;20460;-69
2022/07/27 07:43:53;;;;;;;3.30;0.90;;;21.20;59.70;;;;;;4994552;28;20452;-69
2022/07/27 07:46:20;;;;;;;3.20;1.00;;;21.30;59.40;;;;;;4994617;28;21020;-69
2022/07/27 07:48:46;;;;;;;4.13;0.93;;;21.30;58.70;;;;;;4994540;28;20989;-70
2022/07/27 07:51:13;;;;;;;2.10;0.90;;;21.40;59.00;;;;;;4994402;28;20491;-70
2022/07/27 07:53:41;;;;;;;5.17;1.10;;;21.40;59.20;;;;;;4994357;28;20452;-70
2022/07/27 07:56:09;;;;;;;2.07;1.07;;;21.60;59.50;;;;;;4994323;28;20448;-69
2022/07/27 07:58:36;;;;;;;4.13;1.00;;;21.70;57.90;;;;;;4994207;28;20468;-69
2022/07/27 08:01:03;;;;;;;1.57;0.90;;;21.70;57.80;;;;;;4995174;28;20448;-69
2022/07/27 08:03:30;;;;;;;3.70;1.00;;;21.90;57.60;;;;;;4993987;28;20812;-69
2022/07/27 08:05:56;;;;;;;4.30;1.27;;;22.00;56.50;;;;;;4994269;28;20445;-69
2022/07/27 08:08:23;;;;;;;4.50;1.00;;;22.10;56.70;;;;;;4994275;28;20452;-69
2022/07/27 08:10:51;;;;;;;5.93;1.20;;;22.20;55.60;;;;;;4994082;28;20484;-69
2022/07/27 08:13:18;;;;;;;3.43;1.30;;;22.40;56.10;;;;;;4993784;28;20474;-69
2022/07/27 08:15:45;;;;;;;1.27;0.60;;;22.60;55.00;;;;;;4994240;28;20452;-69
2022/07/27 08:18:12;;;;;;;4.50;0.90;;;23.00;54.90;;;;;;4994010;28;20463;-69
2022/07/27 08:20:39;;;;;;;4.93;1.20;;;23.40;53.90;;;;;;4995218;28;20432;-68
2022/07/27 08:23:06;;;;;;;3.60;1.20;;;23.60;52.90;;;;;;4997917;28;20973;-67
2022/07/27 08:25:33;;;;;;;3.23;0.77;;;23.60;50.70;;;;;;4998216;28;20452;-67
2022/07/27 08:28:01;;;;;;;3.47;1.13;;;23.50;50.50;;;;;;4997885;28;20825;-68
2022/07/27 08:30:28;;;;;;;7.20;1.00;;;23.40;51.10;;;;;;4997962;28;20490;-68
2022/07/27 08:32:57;;;;;;;3.27;0.90;;;23.40;52.00;;;;;;4997988;28;20898;-68
2022/07/27 08:35:25;;;;;;;3.33;1.43;;;23.60;52.70;;;;;;4998058;28;20478;-68
2022/07/27 08:37:52;;;;;;;1.90;0.50;;;24.00;51.00;;;;;;4997906;28;20458;-68
2022/07/27 08:40:19;;;;;;;1.97;0.93;;;24.20;49.60;;;;;;4997881;28;20498;-68
2022/07/27 08:42:47;;;;;;;2.00;0.80;;;24.50;50.10;;;;;;4997656;28;20934;-67
2022/07/27 08:45:17;;;;;;;3.87;1.30;;;24.90;50.50;;;;;;4997981;28;20528;-67
2022/07/27 08:47:45;;;;;;;7.20;1.50;;;25.30;48.70;;;;;;4997884;28;20437;-67
2022/07/27 08:50:23;;;;;;;2.83;1.10;;;25.50;46.20;;;;;;4997567;28;20475;-67
2022/07/27 08:52:53;;;;;;;4.40;1.17;;;25.40;43.90;;;;;;4997751;28;20432;-68
2022/07/27 08:55:21;;;;;;;4.97;1.00;;;25.00;44.80;;;;;;4998440;28;20486;-68
2022/07/27 08:57:48;;;;;;;6.13;1.07;;;24.50;44.80;;;;;;4997560;28;20452;-68
2022/07/27 09:00:17;;;;;;;2.40;0.90;;;24.20;45.70;;;;;;4997505;28;20460;-68
2022/07/27 09:02:45;;;;;;;2.37;0.80;;;23.80;46.20;;;;;;4997230;28;20435;-67
2022/07/27 09:05:12;;;;;;;1.97;1.07;;;23.50;46.90;;;;;;4997184;28;20443;-67
2022/07/27 09:07:38;;;;;;;1.97;1.00;;;23.30;48.00;;;;;;4997409;28;20458;-67
2022/07/27 09:10:07;;;;;;;3.43;1.20;;;23.20;48.60;;;;;;4999188;28;20460;-68
2022/07/27 09:12:34;;;;;;;1.50;0.90;;;23.20;48.50;;;;;;4997429;28;20460;-68
2022/07/27 09:15:10;;;;;;;2.43;0.80;;;23.30;49.70;;;;;;4997319;28;20474;-68
2022/07/27 09:17:39;;;;;;;3.13;0.77;;;23.50;49.30;;;;;;4997327;28;20443;-68
2022/07/27 09:20:09;;;;;;;1.20;0.83;;;23.80;48.10;;;;;;4996949;28;20467;-68
2022/07/27 09:22:40;;;;;;;1.70;0.70;;;24.10;47.70;;;;;;4997284;28;20818;-68
2022/07/27 09:25:08;;;;;;;1.57;0.80;;;24.50;47.20;;;;;;4996966;28;20462;-68
2022/07/27 09:27:36;;;;;;;2.33;0.70;;;25.10;47.70;;;;;;4997027;28;20551;-68
2022/07/27 09:30:04;;;;;;;2.73;0.67;;;25.90;46.90;;;;;;4996993;28;20467;-68
2022/07/27 09:32:30;;;;;;;1.37;0.80;;;26.70;45.00;;;;;;4995543;28;20989;-68
2022/07/27 09:34:59;;;;;;;3.17;1.17;;;27.50;42.90;;;;;;4997456;28;20444;-68
2022/07/27 09:37:28;;;;;;;1.70;0.90;;;28.20;39.90;;;;;;4997035;28;20440;-68
2022/07/27 09:40:10;;;;;;;2.13;0.90;;;28.70;37.90;;;;;;4996776;28;20464;-68
2022/07/27 09:42:37;;;;;;;3.90;1.17;;;28.80;36.30;;;;;;4996599;28;20432;-68
2022/07/27 09:45:25;;;;;;;2.20;0.63;;;28.70;37.00;;;;;;4996816;28;20455;-68
2022/07/27 09:47:52;;;;;;;1.50;0.77;;;28.50;37.10;;;;;;4996618;28;20830;-68
2022/07/27 09:50:22;;;;;;;4.13;0.97;;;28.30;36.60;;;;;;4996542;28;20467;-68
2022/07/27 09:52:49;;;;;;;1.77;0.60;;;28.30;37.70;;;;;;4996744;28;20473;-68
2022/07/27 09:55:20;;;;;;;2.60;1.07;;;28.20;38.10;;;;;;4996539;28;20459;-68
2022/07/27 09:57:52;;;;;;;3.63;1.37;;;28.10;38.70;;;;;;4996543;28;20871;-68
2022/07/27 10:00:20;;;;;;;0.90;0.50;;;28.10;38.90;;;;;;4996446;28;20522;-68
2022/07/27 10:02:48;;;;;;;2.37;0.70;;;28.20;39.00;;;;;;4996585;28;20495;-68
2022/07/27 10:05:20;;;;;;;1.27;0.60;;;28.30;37.20;;;;;;4996446;28;20471;-68
2022/07/27 10:07:48;;;;;;;5.07;0.80;;;28.30;37.10;;;;;;4996689;28;20487;-68
2022/07/27 10:10:16;;;;;;;2.10;0.60;;;28.30;37.30;;;;;;4995848;28;20998;-68
2022/07/27 10:12:43;;;;;;;4.13;0.70;;;28.20;37.50;;;;;;4996059;28;20492;-68
2022/07/27 10:15:10;;;;;;;2.33;0.77;;;28.10;38.60;;;;;;4996081;28;20957;-68
2022/07/27 10:17:38;;;;;;;3.17;0.77;;;28.10;39.10;;;;;;4996215;28;20466;-68
2022/07/27 10:20:08;;;;;;;2.83;0.70;;;28.10;39.60;;;;;;4996066;28;20460;-68
2022/07/27 10:22:55;;;;;;;2.97;0.90;;;28.00;39.00;;;;;;4996485;28;20487;-68
2022/07/27 10:25:23;;;;;;;2.57;0.77;;;27.90;39.30;;;;;;4997896;28;20439;-68
2022/07/27 10:28:09;;;;;;;1.17;0.70;;;27.80;39.90;;;;;;4998928;28;20535;-68
2022/07/27 10:30:36;;;;;;;1.47;0.70;;;27.80;39.30;;;;;;4996105;28;20443;-68
2022/07/27 10:33:13;;;;;;;1.93;0.80;;;28.00;39.90;;;;;;4995965;28;20436;-68
2022/07/27 10:35:40;;;;;;;4.20;0.83;;;28.30;38.80;;;;;;4995881;28;20491;-68
2022/07/27 10:38:10;;;;;;;2.10;0.87;;;28.60;37.40;;;;;;4995860;28;20441;-68
2022/07/27 10:40:37;;;;;;;2.67;0.87;;;28.80;37.60;;;;;;4996034;28;20491;-68
2022/07/27 10:43:10;;;;;;;2.20;1.00;;;29.10;37.50;;;;;;4995533;28;20539;-68
2022/07/27 10:45:43;;;;;;;2.53;0.63;;;29.40;36.70;;;;;;4995327;28;20985;-68
2022/07/27 10:48:39;;;;;;;1.07;0.70;;;29.60;35.50;;;;;;4995916;28;20456;-68
2022/07/27 10:51:07;;;;;;;2.43;0.93;;;30.60;35.40;;;;;;4995409;28;20586;-68
2022/07/27 10:53:35;;;;;;;1.00;0.60;;;31.70;32.10;;;;;;4995159;28;20936;-68
2022/07/27 10:56:03;;;;;;;1.80;1.10;;;32.90;30.70;;;;;;4995579;28;20460;-68
2022/07/27 10:58:47;;;;;;;2.63;1.27;;;34.10;29.40;;;;;;4995283;28;20518;-69
2022/07/27 11:01:15;;;;;;;2.20;0.97;;;34.70;27.40;;;;;;4995652;28;20431;-68
2022/07/27 11:03:52;;;;;;;3.17;0.90;;;34.60;27.40;;;;;;4995568;28;20439;-68
2022/07/27 11:06:28;;;;;;;1.57;0.80;;;34.10;26.40;;;;;;4995265;28;20436;-68
2022/07/27 11:08:56;;;;;;;4.03;1.03;;;33.20;27.70;;;;;;4995383;28;20472;-68
2022/07/27 11:11:25;;;;;;;1.97;0.80;;;32.30;28.50;;;;;;4994881;28;21024;-68
2022/07/27 11:13:54;;;;;;;3.27;1.03;;;31.40;29.10;;;;;;4995096;28;20432;-68
2022/07/27 11:16:22;;;;;;;1.70;0.80;;;30.80;30.10;;;;;;4995029;28;20452;-68
2022/07/27 11:18:56;;;;;;;3.63;1.07;;;30.20;30.70;;;;;;4994917;28;20467;-68
2022/07/27 11:21:25;;;;;;;1.77;0.83;;;29.60;31.90;;;;;;4994985;28;20524;-68
2022/07/27 11:23:53;;;;;;;2.23;1.00;;;29.20;32.50;;;;;;4994981;28;20459;-68
2022/07/27 11:26:21;;;;;;;2.47;0.97;;;29.10;33.70;;;;;;4994819;28;20471;-68
2022/07/27 11:28:48;;;;;;;1.40;0.63;;;29.40;33.80;;;;;;4994385;28;20476;-68
2022/07/27 11:31:15;;;;;;;1.70;0.80;;;29.80;34.10;;;;;;4994998;28;20476;-68
2022/07/27 11:33:57;;;;;;;1.60;0.60;;;30.50;32.70;;;;;;4994493;28;20819;-68
2022/07/27 11:36:39;;;;;;;4.37;0.70;;;31.80;30.60;;;;;;4994735;28;20433;-68
2022/07/27 11:39:07;;;;;;;1.80;0.80;;;32.30;27.80;;;;;;4994659;28;20478;-68
2022/07/27 11:41:35;;;;;;;1.40;0.67;;;31.90;28.30;;;;;;4994355;28;20490;-68
2022/07/27 11:44:04;;;;;;;2.83;0.90;;;31.30;28.90;;;;;;4995037;28;20460;-68
2022/07/27 11:46:33;;;;;;;3.03;0.60;;;30.40;29.60;;;;;;4994244;28;20965;-69
2022/07/27 11:49:05;;;;;;;2.60;0.90;;;29.40;31.20;;;;;;4994355;28;20479;-68
2022/07/27 11:51:32;;;;;;;3.13;0.73;;;29.00;32.90;;;;;;4994131;28;20957;-68
2022/07/27 11:54:01;;;;;;;3.27;0.90;;;28.90;33.70;;;;;;4994433;28;20470;-68
2022/07/27 11:56:30;;;;;;;3.60;1.00;;;29.00;33.40;;;;;;4993509;28;20973;-68
2022/07/27 11:59:00;;;;;;;3.50;0.60;;;29.00;33.30;;;;;;4993897;28;20865;-68
2022/07/27 12:01:28;;;;;;;2.27;0.70;;;29.10;33.20;;;;;;4994241;28;20455;-68
2022/07/27 12:04:15;;;;;;;1.17;0.67;;;29.50;33.20;;;;;;4993983;28;20958;-68
2022/07/27 12:06:43;;;;;;;2.03;0.60;;;30.60;31.50;;;;;;4994428;28;20436;-68
2022/07/27 12:09:14;;;;;;;4.27;0.73;;;31.60;30.20;;;;;;4994104;28;20479;-68
2022/07/27 12:11:50;;;;;;;1.63;0.60;;;32.80;27.80;;;;;;4993870;28;20863;-68
2022/07/27 12:14:17;;;;;;;3.77;0.73;;;33.40;26.30;;;;;;4994249;28;20482;-68
2022/07/27 12:16:45;;;;;;;3.90;0.93;;;33.70;27.10;;;;;;4994219;28;20459;-68
2022/07/27 12:19:22;;;;;;;3.13;0.90;;;34.70;26.40;;;;;;4994214;28;20871;-68
2022/07/27 12:21:54;;;;;;;7.53;1.30;;;36.30;25.90;;;;;;4993874;28;20459;-68
2022/07/27 12:24:32;;;;;;;1.40;0.60;;;37.60;23.70;;;;;;4994137;28;20546;-68
2022/07/27 12:27:04;;;;;;;3.05;0.90;;;39.00;22.20;;;;;;4994275;28;20283;-68
2022/07/27 12:29:30;;;;;;;5.45;0.70;;;39.70;21.30;;;;;;4993907;28;20219;-68
2022/07/27 12:32:02;;;;;;;3.28;0.70;;;39.30;20.70;;;;;;4993617;28;20721;-68
2022/07/27 12:34:34;;;;;;;2.20;0.70;;;38.50;21.10;;;;;;4994160;28;20189;-68
2022/07/27 12:37:02;;;;;;;2.17;0.70;;;37.80;22.20;;;;;;4994133;28;20185;-68
2022/07/27 12:39:31;;;;;;;2.40;0.80;;;37.10;22.80;;;;;;4993989;28;20224;-68
2022/07/27 12:42:06;;;;;;;4.03;0.80;;;36.40;23.40;;;;;;4993949;28;20201;-68
2022/07/27 12:44:34;;;;;;;2.30;1.03;;;35.70;23.80;;;;;;4994017;28;20438;-67
2022/07/27 12:47:39;;;;;;;1.27;0.70;;;34.80;24.10;;;;;;4994032;28;20450;-67
2022/07/27 12:50:05;;;;;;;1.43;0.83;;;34.10;24.90;;;;;;4993557;28;20459;-68
2022/07/27 12:52:34;;;;;;;1.23;0.60;;;33.30;25.50;;;;;;4993598;28;20831;-67
2022/07/27 12:55:01;;;;;;;1.33;0.60;;;32.80;25.90;;;;;;4993985;28;20783;-67
2022/07/27 12:57:28;;;;;;;2.33;1.13;;;32.40;26.50;;;;;;4993897;28;20455;-67